Time;durP1;ratioP1;P1;durP2;ratioP2;P2;SDS_P1;SDS_P2;PMS_P1;PMS_P2;Temp;Humidity;BMP_temperature;BMP_pressure;BME280_temperature;BME280_humidity;BME280_pressure;Samples;Min_cycle;Max_cycle;Signal;HPM_P1;HPM_P2
2022/04/22 00:00:16;;;;;;;10.10;6.93;;;;;;;13.76;55.51;99590.53;5083699;28;20355;-67
2022/04/22 00:02:44;;;;;;;10.73;7.33;;;;;;;13.78;55.50;99593.00;5081530;28;20206;-67
2022/04/22 00:05:12;;;;;;;11.80;7.80;;;;;;;13.78;55.25;99585.84;5081751;28;20214;-67
2022/04/22 00:07:39;;;;;;;12.93;8.07;;;;;;;13.76;55.60;99584.38;5084244;28;20574;-67
2022/04/22 00:10:10;;;;;;;12.80;8.63;;;;;;;13.75;55.33;99586.22;5084273;28;20309;-67
2022/04/22 00:12:38;;;;;;;10.93;7.77;;;;;;;13.72;55.31;99583.91;5081067;28;20209;-67
2022/04/22 00:15:08;;;;;;;12.43;7.30;;;;;;;13.70;55.44;99575.31;5085897;28;20662;-67
2022/04/22 00:17:37;;;;;;;11.53;7.50;;;;;;;13.67;55.71;99570.34;5081500;28;20728;-67
2022/04/22 00:20:06;;;;;;;11.70;7.77;;;;;;;13.65;55.79;99568.88;5084544;28;20271;-67
2022/04/22 00:22:37;;;;;;;12.33;7.53;;;;;;;13.65;55.87;99572.38;5083669;28;20291;-67
2022/04/22 00:25:07;;;;;;;12.97;7.33;;;;;;;13.64;55.78;99565.41;5083317;28;20296;-67
2022/04/22 00:27:35;;;;;;;9.43;6.77;;;;;;;13.62;55.93;99570.09;5080986;28;20301;-67
2022/04/22 00:30:04;;;;;;;11.73;6.83;;;;;;;13.60;56.03;99571.31;5082051;28;20515;-67
2022/04/22 00:32:34;;;;;;;9.50;6.07;;;;;;;13.56;56.05;99566.34;5082121;28;20295;-67
2022/04/22 00:35:05;;;;;;;10.67;6.73;;;;;;;13.53;56.06;99565.91;5082460;28;20807;-67
2022/04/22 00:37:33;;;;;;;9.13;6.30;;;;;;;13.49;56.20;99561.97;5082876;28;20294;-67
2022/04/22 00:40:00;;;;;;;8.83;6.33;;;;;;;13.47;56.26;99556.00;5080107;28;20256;-67
2022/04/22 00:42:28;;;;;;;10.80;6.20;;;;;;;13.45;56.29;99563.38;5084262;28;20231;-67
2022/04/22 00:44:57;;;;;;;8.87;6.33;;;;;;;13.42;56.35;99555.75;5083350;28;20319;-67
2022/04/22 00:47:25;;;;;;;8.40;5.90;;;;;;;13.39;56.42;99554.28;5084426;28;20229;-67
2022/04/22 00:49:53;;;;;;;9.60;5.97;;;;;;;13.37;56.33;99550.19;5081835;28;20213;-67
2022/04/22 00:52:24;;;;;;;9.30;5.70;;;;;;;13.33;56.14;99543.56;5082007;28;20238;-67
2022/04/22 00:54:52;;;;;;;8.40;5.87;;;;;;;13.28;56.37;99546.78;5083697;28;21125;-67
2022/04/22 00:57:20;;;;;;;8.07;5.80;;;;;;;13.22;56.69;99541.38;5085486;28;20259;-67
2022/04/22 00:59:47;;;;;;;9.07;6.07;;;;;;;13.20;56.45;99538.91;5083674;28;20207;-67
2022/04/22 01:02:15;;;;;;;8.70;5.87;;;;;;;13.20;56.65;99533.59;5088053;28;20653;-67
2022/04/22 01:10:15;;;;;;;10.50;5.93;;;;;;;13.10;56.62;99525.88;5085923;28;20565;-67
2022/04/22 01:12:43;;;;;;;10.07;6.77;;;;;;;13.08;56.87;99517.25;5090319;28;20621;-67
2022/04/22 01:15:11;;;;;;;12.10;6.90;;;;;;;13.05;56.93;99527.44;5083710;28;20705;-67
2022/04/22 01:17:39;;;;;;;8.80;6.10;;;;;;;13.00;57.22;99522.69;5089587;28;20204;-67
2022/04/22 01:20:08;;;;;;;14.43;6.80;;;;;;;12.96;57.40;99520.56;5086356;28;20217;-67
2022/04/22 01:22:37;;;;;;;11.03;6.63;;;;;;;12.93;57.31;99513.78;5086735;28;20205;-67
2022/04/22 01:25:05;;;;;;;10.87;6.97;;;;;;;12.89;57.63;99515.19;5087923;28;20207;-67
2022/04/22 01:27:34;;;;;;;11.00;7.03;;;;;;;12.87;57.81;99511.06;5088788;28;20208;-67
2022/04/22 01:30:06;;;;;;;12.07;6.97;;;;;;;12.87;57.77;99511.88;5088799;28;20203;-67
2022/04/22 01:32:35;;;;;;;12.10;7.90;;;;;;;12.80;57.90;99510.97;5090890;28;20586;-66
2022/04/22 01:35:03;;;;;;;15.47;8.33;;;;;;;12.78;58.01;99508.50;5090960;28;20221;-66
2022/04/22 01:37:32;;;;;;;15.57;8.10;;;;;;;12.77;57.92;99512.16;5088034;28;20219;-66
2022/04/22 01:40:01;;;;;;;11.33;7.37;;;;;;;12.74;58.22;99506.41;5087797;28;20199;-66
2022/04/22 01:42:29;;;;;;;12.53;7.63;;;;;;;12.75;58.38;99502.75;5087273;28;20575;-66
2022/04/22 01:44:57;;;;;;;11.40;7.80;;;;;;;12.75;57.96;99503.53;5086485;28;20634;-66
2022/04/22 01:47:25;;;;;;;13.57;8.63;;;;;;;12.73;58.25;99504.75;5086540;28;20208;-66
2022/04/22 01:49:52;;;;;;;13.13;8.93;;;;;;;12.68;58.47;99505.28;5087717;28;20297;-66
2022/04/22 01:52:20;;;;;;;13.97;9.50;;;;;;;12.69;58.44;99493.63;5087745;28;20290;-66
2022/04/22 01:54:50;;;;;;;14.70;8.83;;;;;;;12.67;58.47;99487.69;5089937;28;20258;-66
2022/04/22 01:57:19;;;;;;;14.60;9.70;;;;;;;12.59;58.69;99486.94;5084404;28;20260;-66
2022/04/22 01:59:48;;;;;;;16.23;9.53;;;;;;;12.58;58.85;99486.13;5087572;28;20210;-67
2022/04/22 02:02:16;;;;;;;13.03;9.13;;;;;;;12.55;58.99;99481.19;5083874;28;20570;-67
2022/04/22 02:04:44;;;;;;;13.27;8.77;;;;;;;12.53;59.10;99483.22;5082951;28;20245;-67
2022/04/22 02:07:12;;;;;;;14.37;9.03;;;;;;;12.51;59.26;99479.06;5086027;28;20283;-66
2022/04/22 02:09:40;;;;;;;13.63;9.33;;;;;;;12.51;59.45;99484.41;5086971;28;20290;-67
2022/04/22 02:12:09;;;;;;;13.70;9.83;;;;;;;12.52;59.03;99470.09;5083938;28;20302;-66
2022/04/22 02:14:38;;;;;;;15.70;10.43;;;;;;;12.52;59.22;99464.78;5086669;28;20203;-66
2022/04/22 02:17:06;;;;;;;16.53;9.63;;;;;;;12.49;59.50;99465.97;5085666;28;20207;-66
2022/04/22 02:19:34;;;;;;;18.23;10.70;;;;;;;12.47;59.55;99472.50;5085312;28;20213;-66
2022/04/22 02:22:01;;;;;;;17.80;10.40;;;;;;;12.46;59.43;99473.50;5085389;28;20208;-66
2022/04/22 02:24:29;;;;;;;15.10;10.33;;;;;;;12.43;59.16;99472.03;5086197;28;20573;-66
2022/04/22 02:29:43;;;;;;;16.40;10.93;;;;;;;12.31;60.13;99463.66;5084924;28;20213;-67
2022/04/22 02:32:11;;;;;;;16.70;10.50;;;;;;;12.28;60.04;99452.59;5083350;28;20667;-67
2022/04/22 02:34:39;;;;;;;14.50;10.47;;;;;;;12.22;60.30;99456.00;5085325;28;20199;-67
2022/04/22 02:37:06;;;;;;;17.70;11.67;;;;;;;12.20;60.49;99448.22;5086096;28;20211;-67
2022/04/22 02:39:34;;;;;;;16.33;11.10;;;;;;;12.24;60.27;99457.44;5085313;28;20686;-67
2022/04/22 02:47:34;;;;;;;18.43;12.23;;;;;;;12.18;60.68;99441.41;5086118;28;20220;-67
2022/04/22 02:50:02;;;;;;;19.20;11.83;;;;;;;12.14;60.53;99445.47;5084845;28;20234;-67
2022/04/22 02:52:29;;;;;;;18.80;12.13;;;;;;;12.16;60.66;99444.25;5083536;28;20411;-67
2022/04/22 02:54:57;;;;;;;20.83;13.53;;;;;;;12.14;60.66;99435.63;5086652;28;20241;-67
2022/04/22 02:57:25;;;;;;;18.67;13.27;;;;;;;12.15;60.90;99431.13;5082725;28;20206;-67
2022/04/22 02:59:54;;;;;;;19.03;12.83;;;;;;;12.14;61.06;99438.28;5086545;28;20565;-67
2022/04/22 03:02:22;;;;;;;22.63;12.60;;;;;;;12.12;61.21;99431.53;5086008;28;20321;-67
2022/04/22 03:04:50;;;;;;;21.13;12.43;;;;;;;12.14;60.95;99430.31;5086317;28;20789;-67
2022/04/22 03:07:17;;;;;;;20.43;13.33;;;;;;;12.14;61.04;99430.31;5086856;28;20207;-67
2022/04/22 03:09:45;;;;;;;19.83;12.00;;;;;;;12.14;60.94;99430.31;5084292;28;20671;-67
2022/04/22 03:12:14;;;;;;;21.37;12.23;;;;;;;12.13;60.99;99431.34;5083824;28;20212;-67
2022/04/22 03:14:43;;;;;;;22.10;13.27;;;;;;;12.17;60.77;99432.63;5085077;28;20232;-67
2022/04/22 03:17:13;;;;;;;20.17;13.10;;;;;;;12.15;60.75;99426.66;5085366;28;20556;-67
2022/04/22 03:19:41;;;;;;;24.20;12.97;;;;;;;12.14;60.77;99425.00;5087787;28;20622;-67
2022/04/22 03:22:08;;;;;;;19.47;12.47;;;;;;;12.14;60.66;99421.53;5088365;28;20213;-67
2022/04/22 03:24:36;;;;;;;29.70;13.90;;;;;;;12.12;60.97;99415.59;5085885;28;20195;-67
2022/04/22 03:27:05;;;;;;;25.10;13.93;;;;;;;12.12;61.36;99419.06;5085907;28;20195;-67
2022/04/22 03:29:35;;;;;;;21.00;13.10;;;;;;;12.07;61.19;99424.09;5082946;28;20215;-67
2022/04/22 03:32:03;;;;;;;19.97;13.23;;;;;;;12.03;61.58;99422.81;5085649;28;20199;-67
2022/04/22 03:34:32;;;;;;;21.70;13.47;;;;;;;12.05;61.21;99420.78;5084754;28;20332;-67
2022/04/22 03:37:01;;;;;;;20.83;13.50;;;;;;;12.03;61.03;99423.66;5084013;28;20222;-67
2022/04/22 03:39:28;;;;;;;22.43;14.23;;;;;;;12.04;61.20;99429.78;5083703;28;20206;-67
2022/04/22 03:41:56;;;;;;;20.73;13.00;;;;;;;11.96;61.41;99424.56;5088102;28;20205;-67
2022/04/22 03:44:24;;;;;;;24.20;13.77;;;;;;;11.96;61.51;99432.53;5084332;28;20248;-67
2022/04/22 03:46:51;;;;;;;24.03;15.00;;;;;;;11.96;61.61;99432.53;5087261;28;20242;-67
2022/04/22 03:49:19;;;;;;;24.27;14.43;;;;;;;11.99;61.31;99432.16;5081451;28;20674;-67
2022/04/22 03:51:48;;;;;;;23.77;14.40;;;;;;;11.96;61.54;99424.56;5083902;28;20234;-67
2022/04/22 03:54:18;;;;;;;22.03;14.10;;;;;;;11.97;61.40;99420.88;5080825;28;20240;-67
2022/04/22 03:59:31;;;;;;;23.10;14.33;;;;;;;11.91;61.58;99424.28;5086053;28;20202;-67
2022/04/22 04:01:59;;;;;;;23.37;13.83;;;;;;;11.88;61.71;99408.69;5084725;28;20246;-67
2022/04/22 04:04:27;;;;;;;22.53;13.77;;;;;;;11.89;61.86;99420.97;5085505;28;20200;-67
2022/04/22 04:06:56;;;;;;;22.23;13.87;;;;;;;11.85;61.85;99420.53;5087658;28;20304;-68
2022/04/22 04:17:41;;;;;;;21.50;14.60;;;;;;;11.79;61.84;99410.59;5084719;28;20300;-67
2022/04/22 04:25:41;;;;;;;23.17;15.13;;;;;;;11.76;62.03;99410.16;5085290;28;20272;-67
2022/04/22 04:28:10;;;;;;;23.53;14.60;;;;;;;11.73;62.10;99410.47;5083169;28;20771;-67
2022/04/22 04:30:38;;;;;;;20.87;13.47;;;;;;;11.73;61.96;99406.00;5083872;28;20732;-67
2022/04/22 04:33:06;;;;;;;25.40;15.07;;;;;;;11.73;61.95;99415.78;5084710;28;20205;-67
2022/04/22 04:35:34;;;;;;;23.40;14.70;;;;;;;11.70;61.99;99412.47;5080436;28;20273;-67
2022/04/22 04:38:04;;;;;;;23.63;14.90;;;;;;;11.69;62.46;99416.16;5081347;28;20212;-67
2022/04/22 04:40:32;;;;;;;25.23;15.07;;;;;;;11.72;61.84;99409.66;5081175;28;20304;-67
2022/04/22 04:43:00;;;;;;;24.30;15.37;;;;;;;11.72;62.00;99411.47;5084544;28;20209;-67
2022/04/22 04:45:28;;;;;;;29.10;16.40;;;;;;;11.68;62.15;99414.50;5083541;28;20205;-67
2022/04/22 04:47:56;;;;;;;23.50;15.87;;;;;;;11.71;62.13;99405.34;5084736;28;20682;-67
2022/04/22 04:50:24;;;;;;;25.80;16.07;;;;;;;11.73;62.07;99405.16;5082307;28;20212;-67
2022/04/22 04:52:51;;;;;;;24.37;16.17;;;;;;;11.72;62.10;99400.84;5085173;28;20385;-67
2022/04/22 04:55:21;;;;;;;26.00;16.73;;;;;;;11.76;62.06;99404.84;5080955;28;20527;-67
2022/04/22 04:57:48;;;;;;;27.77;16.90;;;;;;;11.76;62.25;99410.97;5085995;28;20306;-68
2022/04/22 05:00:18;;;;;;;28.43;16.13;;;;;;;11.74;62.46;99406.81;5084762;28;20210;-68
2022/04/22 05:02:46;;;;;;;28.47;16.33;;;;;;;11.74;62.51;99396.19;5083035;28;20612;-68
2022/04/22 05:05:14;;;;;;;27.83;17.20;;;;;;;11.79;62.25;99399.97;5083111;28;20199;-67
2022/04/22 05:07:50;;;;;;;25.07;16.20;;;;;;;11.80;62.46;99406.09;5082469;28;20209;-66
2022/04/22 05:10:19;;;;;;;26.73;15.67;;;;;;;11.80;62.71;99411.44;5083806;28;20653;-66
2022/04/22 05:12:49;;;;;;;28.73;16.60;;;;;;;11.83;62.55;99401.28;5085868;28;20248;-67
2022/04/22 05:15:18;;;;;;;24.40;15.77;;;;;;;11.88;62.28;99404.19;5085248;28;20299;-66
2022/04/22 05:17:47;;;;;;;27.47;16.63;;;;;;;11.93;62.27;99403.66;5085520;28;20582;-66
2022/04/22 05:20:17;;;;;;;24.70;15.53;;;;;;;11.93;62.22;99406.31;5084058;28;20331;-66
2022/04/22 05:22:45;;;;;;;24.87;16.40;;;;;;;11.99;62.15;99397.63;5084841;28;20212;-67
2022/04/22 05:25:15;;;;;;;27.00;17.27;;;;;;;12.03;62.22;99401.56;5085526;28;20216;-67
2022/04/22 05:27:43;;;;;;;25.97;15.67;;;;;;;11.99;62.40;99402.94;5087676;28;20313;-67
2022/04/22 05:32:59;;;;;;;25.13;16.10;;;;;;;12.07;62.49;99406.31;5085669;28;20581;-67
2022/04/22 05:35:28;;;;;;;31.33;16.47;;;;;;;12.13;62.13;99398.63;5083812;28;20250;-67
2022/04/22 05:37:57;;;;;;;27.60;17.03;;;;;;;12.20;62.13;99404.84;5085173;28;20209;-67
2022/04/22 05:40:27;;;;;;;30.10;17.47;;;;;;;12.23;62.18;99402.63;5086592;28;20238;-67
2022/04/22 05:42:55;;;;;;;26.17;15.73;;;;;;;12.28;62.44;99410.91;5085966;28;20216;-67
2022/04/22 05:45:26;;;;;;;28.80;17.07;;;;;;;12.34;62.29;99407.50;5085739;28;20207;-66
2022/04/22 05:47:56;;;;;;;28.93;15.23;;;;;;;12.42;62.00;99404.72;5089672;28;20301;-67
2022/04/22 05:50:25;;;;;;;30.67;16.53;;;;;;;12.48;62.04;99405.03;5085667;28;20204;-67
2022/04/22 05:52:57;;;;;;;28.73;17.50;;;;;;;12.51;62.14;99404.63;5092844;28;20208;-66
2022/04/22 05:55:27;;;;;;;26.83;19.67;;;;;;;12.84;61.53;99400.50;5087127;28;20491;-70
2022/04/22 05:57:56;;;;;;;27.17;16.20;;;;;;;12.72;61.44;99399.38;5087856;28;20222;-68
2022/04/22 06:00:28;;;;;;;27.77;16.13;;;;;;;12.61;61.54;99398.00;5094193;28;20198;-70
2022/04/22 06:02:56;;;;;;;28.07;16.40;;;;;;;12.58;61.60;99400.19;5070195;28;20645;-68
2022/04/22 06:05:25;;;;;;;24.73;16.40;;;;;;;12.61;61.78;99394.53;5087457;28;20191;-70
2022/04/22 06:10:37;;;;;;;26.63;15.93;;;;;;;12.74;61.50;99386.72;5081892;28;20206;-69
2022/04/22 06:13:06;;;;;;;26.63;16.67;;;;;;;12.77;61.35;99378.31;5086637;28;20290;-69
2022/04/22 06:15:35;;;;;;;25.13;16.17;;;;;;;12.79;60.97;99378.97;5086968;28;20247;-68
2022/04/22 06:18:03;;;;;;;25.10;15.73;;;;;;;12.86;60.70;99379.88;5084328;28;20568;-69
2022/04/22 06:20:31;;;;;;;25.07;16.57;;;;;;;12.85;61.04;99380.88;5084991;28;20258;-69
2022/04/22 06:23:00;;;;;;;23.30;15.60;;;;;;;12.85;60.90;99375.53;5086499;28;20199;-69
2022/04/22 06:25:28;;;;;;;24.27;15.57;;;;;;;12.91;61.05;99374.81;5085861;28;20215;-69
2022/04/22 06:27:56;;;;;;;28.17;16.53;;;;;;;12.92;60.47;99365.81;5086633;28;20195;-68
2022/04/22 06:30:25;;;;;;;24.67;15.93;;;;;;;12.96;60.70;99367.06;5084007;28;20306;-69
2022/04/22 06:32:55;;;;;;;31.53;15.97;;;;;;;12.94;60.89;99366.44;5084066;28;20858;-69
2022/04/22 06:35:23;;;;;;;25.50;15.80;;;;;;;12.97;60.66;99360.75;5083744;28;20282;-69
2022/04/22 06:37:52;;;;;;;25.03;16.07;;;;;;;13.03;60.36;99364.47;5086181;28;20288;-68
2022/04/22 06:45:54;;;;;;;24.73;15.90;;;;;;;13.11;60.08;99359.84;5083355;28;20199;-69
2022/04/22 06:48:29;;;;;;;28.40;16.30;;;;;;;13.16;60.28;99357.47;5083120;28;20264;-69
2022/04/22 06:51:13;;;;;;;25.37;15.20;;;;;;;13.21;59.96;99358.72;5081194;28;20210;-69
2022/04/22 06:53:42;;;;;;;24.43;15.53;;;;;;;13.22;59.93;99357.72;5082991;28;20898;-69
2022/04/22 06:56:13;;;;;;;24.43;16.20;;;;;;;13.30;59.82;99357.56;5084298;28;20235;-69
2022/04/22 06:58:42;;;;;;;22.70;14.80;;;;;;;13.38;59.59;99360.09;5085006;28;20242;-69
2022/04/22 07:01:10;;;;;;;23.60;15.40;;;;;;;13.38;59.60;99354.75;5084186;28;20228;-68
2022/04/22 07:03:59;;;;;;;25.70;15.43;;;;;;;13.47;59.18;99364.25;5084320;28;20204;-68
2022/04/22 07:06:27;;;;;;;20.80;14.53;;;;;;;13.54;59.01;99365.16;5082424;28;20232;-68
2022/04/22 07:08:56;;;;;;;21.40;14.37;;;;;;;13.61;58.31;99382.00;5083223;28;20232;-68
2022/04/22 07:11:25;;;;;;;22.03;15.50;;;;;;;13.65;58.25;99375.25;5083639;28;20651;-68
2022/04/22 07:13:54;;;;;;;22.47;14.60;;;;;;;13.71;58.04;99360.34;5086702;28;20208;-68
2022/04/22 07:16:22;;;;;;;21.83;14.03;;;;;;;13.73;58.11;99359.13;5085232;28;20699;-68
2022/04/22 07:18:51;;;;;;;23.07;14.70;;;;;;;13.82;57.58;99359.78;5090242;28;20201;-69
2022/04/22 07:21:21;;;;;;;20.70;14.13;;;;;;;13.88;57.21;99367.84;5084951;28;20206;-68
2022/04/22 07:23:50;;;;;;;22.87;15.00;;;;;;;13.90;57.11;99360.44;5089458;28;20236;-69
2022/04/22 07:26:19;;;;;;;22.03;14.10;;;;;;;13.93;56.92;99354.75;5087384;28;20572;-68
2022/04/22 07:28:49;;;;;;;20.77;13.70;;;;;;;14.03;56.90;99356.22;5085849;28;20202;-68
2022/04/22 07:31:18;;;;;;;19.10;13.97;;;;;;;14.05;56.87;99356.88;5086365;28;20263;-69
2022/04/22 07:33:47;;;;;;;22.83;14.37;;;;;;;14.09;56.75;99358.09;5086174;28;20213;-68
2022/04/22 07:36:15;;;;;;;23.80;14.50;;;;;;;14.16;56.34;99358.97;5080076;28;20237;-67
2022/04/22 07:38:45;;;;;;;21.20;13.60;;;;;;;14.25;56.15;99352.41;5080931;28;20244;-68
2022/04/22 07:41:18;;;;;;;19.13;12.90;;;;;;;14.30;55.80;99348.16;5082560;28;20218;-68
2022/04/22 07:46:48;;;;;;;19.83;13.20;;;;;;;14.47;55.54;99348.66;5082011;28;20667;-68
2022/04/22 07:49:20;;;;;;;19.97;12.73;;;;;;;14.56;55.06;99351.97;5080859;28;20210;-67
2022/04/22 07:51:48;;;;;;;17.57;12.20;;;;;;;14.63;55.17;99350.97;5081881;28;20256;-67
2022/04/22 07:54:17;;;;;;;16.43;11.53;;;;;;;14.77;53.17;99349.16;5083546;28;20230;-69
2022/04/22 07:56:44;;;;;;;18.67;12.27;;;;;;;14.76;53.55;99339.50;5084054;28;20966;-68
2022/04/22 07:59:12;;;;;;;15.57;11.33;;;;;;;14.89;53.58;99347.53;5080652;28;20225;-68
2022/04/22 08:01:40;;;;;;;17.03;11.97;;;;;;;15.02;52.58;99344.91;5082898;28;20644;-68
2022/04/22 08:04:09;;;;;;;19.20;14.03;;;;;;;15.17;52.23;99346.53;5076638;28;21332;-68
2022/04/22 08:06:38;;;;;;;17.83;13.17;;;;;;;15.28;52.07;99360.09;5082571;28;20202;-68
2022/04/22 08:09:05;;;;;;;15.00;11.30;;;;;;;15.33;52.45;99354.97;5083081;28;20210;-68
2022/04/22 08:11:35;;;;;;;16.00;11.27;;;;;;;15.48;51.20;99348.59;5082313;28;20317;-69
2022/04/22 08:14:03;;;;;;;14.37;11.23;;;;;;;15.56;50.86;99338.56;5084008;28;20712;-68
2022/04/22 08:16:31;;;;;;;17.77;10.93;;;;;;;15.66;50.47;99340.78;5082395;28;20231;-69
2022/04/22 08:18:59;;;;;;;15.57;11.40;;;;;;;15.78;50.18;99336.44;5083320;28;20226;-69
2022/04/22 08:21:32;;;;;;;19.47;11.47;;;;;;;15.70;50.08;99342.00;5075826;28;20292;-65
2022/04/22 08:24:00;;;;;;;15.33;10.77;;;;;;;15.91;50.09;99336.44;5075734;28;20207;-67
2022/04/22 08:26:30;;;;;;;15.47;11.73;;;;;;;16.01;49.82;99339.47;5080117;28;20306;-67
2022/04/22 08:28:59;;;;;;;13.87;10.73;;;;;;;16.19;48.52;99341.47;5081265;28;20313;-68
2022/04/22 08:31:26;;;;;;;14.90;11.03;;;;;;;16.03;48.55;99334.72;5080544;28;20210;-67
2022/04/22 08:33:56;;;;;;;19.10;10.70;;;;;;;16.29;48.73;99341.00;5083963;28;20613;-67
2022/04/22 08:36:29;;;;;;;14.90;10.90;;;;;;;16.50;48.18;99332.69;5079401;28;20238;-67
2022/04/22 08:38:58;;;;;;;13.70;10.97;;;;;;;16.62;47.79;99327.53;5077476;28;20203;-67
2022/04/22 08:41:33;;;;;;;14.77;10.83;;;;;;;16.64;47.81;99326.25;5079192;28;20202;-67
2022/04/22 08:44:04;;;;;;;18.93;10.90;;;;;;;16.80;47.57;99328.41;5083122;28;20220;-67
2022/04/22 08:52:04;;;;;;;16.03;10.73;;;;;;;17.13;46.52;99322.03;5080526;28;20974;-67
2022/04/22 08:54:36;;;;;;;15.87;10.67;;;;;;;17.24;46.30;99323.97;5082190;28;20873;-68
2022/04/22 08:57:04;;;;;;;15.47;10.73;;;;;;;17.25;46.20;99317.56;5076380;28;20744;-67
2022/04/22 08:59:33;;;;;;;14.17;10.33;;;;;;;17.14;46.06;99319.13;5082340;28;21508;-67
2022/04/22 09:02:02;;;;;;;14.23;9.93;;;;;;;17.38;46.03;99314.81;5081723;28;20255;-67
2022/04/22 09:04:30;;;;;;;14.27;9.87;;;;;;;17.53;45.69;99309.91;5077727;28;20217;-67
2022/04/22 09:07:00;;;;;;;14.40;10.40;;;;;;;17.71;46.08;99306.47;5082904;28;20202;-67
2022/04/22 09:09:30;;;;;;;13.57;10.13;;;;;;;17.67;44.71;99310.66;5078325;28;20203;-68
2022/04/22 09:12:10;;;;;;;13.40;10.13;;;;;;;17.68;45.27;99307.72;5082277;28;20225;-67
2022/04/22 09:14:45;;;;;;;15.83;9.60;;;;;;;17.75;45.82;99299.63;5080886;28;20453;-68
2022/04/22 09:17:16;;;;;;;15.93;10.30;;;;;;;17.69;45.59;99295.13;5081363;28;20749;-67
2022/04/22 09:19:44;;;;;;;14.40;10.77;;;;;;;17.73;44.25;99290.16;5084031;28;20206;-67
2022/04/22 09:22:18;;;;;;;15.17;10.13;;;;;;;18.01;44.75;99295.81;5084146;28;20210;-67
2022/04/22 09:24:50;;;;;;;13.53;9.80;;;;;;;18.16;44.53;99280.16;5086667;28;20207;-67
2022/04/22 09:27:18;;;;;;;12.17;9.47;;;;;;;18.24;44.42;99284.38;5088418;28;20198;-66
2022/04/22 09:29:55;;;;;;;14.90;10.23;;;;;;;18.26;43.56;99285.00;5089861;28;20217;-66
2022/04/22 09:32:24;;;;;;;12.00;9.47;;;;;;;18.54;43.34;99281.72;5087620;28;20210;-66
2022/04/22 09:34:53;;;;;;;13.00;10.13;;;;;;;18.34;43.68;99277.44;5086324;28;20249;-66
2022/04/22 09:42:56;;;;;;;12.97;9.03;;;;;;;18.93;42.48;99251.59;5083186;28;20289;-68
2022/04/22 09:45:37;;;;;;;10.50;8.87;;;;;;;19.02;42.46;99255.59;5083955;28;20286;-68
2022/04/22 09:48:13;;;;;;;10.77;8.50;;;;;;;19.26;41.48;99255.63;5087084;28;20203;-67
2022/04/22 09:50:43;;;;;;;10.80;8.80;;;;;;;19.24;41.31;99260.41;5084820;28;20264;-66
2022/04/22 09:53:12;;;;;;;10.43;8.93;;;;;;;19.34;41.30;99244.50;5083067;28;20203;-67
2022/04/22 09:55:48;;;;;;;12.83;8.93;;;;;;;19.34;40.73;99239.97;5086230;28;20303;-67
2022/04/22 09:58:23;;;;;;;10.53;7.90;;;;;;;19.53;40.96;99246.03;5085679;28;20234;-66
2022/04/22 10:01:03;;;;;;;12.20;7.63;;;;;;;19.74;40.38;99240.03;5086211;28;20203;-67
2022/04/22 10:03:32;;;;;;;9.37;6.97;;;;;;;19.79;40.47;99237.44;5085857;28;20556;-67
2022/04/22 10:06:01;;;;;;;12.33;7.97;;;;;;;19.89;40.31;99232.28;5086456;28;20210;-67
2022/04/22 10:08:31;;;;;;;10.27;8.30;;;;;;;19.88;39.46;99227.94;5084572;28;20650;-67
2022/04/22 10:11:00;;;;;;;10.23;7.30;;;;;;;19.94;39.36;99228.06;5084444;28;20206;-67
2022/04/22 10:13:34;;;;;;;11.70;7.93;;;;;;;20.14;39.40;99223.88;5084665;28;20211;-67
2022/04/22 10:16:03;;;;;;;46.60;14.23;;;;;;;20.07;40.13;99223.22;5085710;28;20484;-67
2022/04/22 10:18:32;;;;;;;17.87;9.70;;;;;;;20.07;39.40;99219.72;5084527;28;20639;-68
2022/04/22 10:21:00;;;;;;;14.50;9.00;;;;;;;20.09;39.71;99218.41;5087180;28;20206;-67
2022/04/22 10:23:29;;;;;;;15.17;8.50;;;;;;;20.07;38.66;99215.16;5081470;28;20298;-67
2022/04/22 10:25:56;;;;;;;20.40;8.20;;;;;;;19.91;38.58;99207.84;5082278;28;20293;-67
2022/04/22 10:28:26;;;;;;;14.50;7.53;;;;;;;20.02;39.32;99203.47;5084546;28;20294;-67
2022/04/22 10:30:55;;;;;;;12.07;7.90;;;;;;;20.39;38.77;99207.44;5082182;28;20215;-67
2022/04/22 10:33:28;;;;;;;15.23;7.97;;;;;;;20.58;38.77;99192.69;5083914;28;20198;-67
2022/04/22 10:35:59;;;;;;;19.83;7.30;;;;;;;20.70;38.47;99194.47;5090094;28;20620;-67
2022/04/22 10:38:28;;;;;;;11.00;7.20;;;;;;;20.86;37.89;99193.66;5082728;28;20237;-68
2022/04/22 10:40:56;;;;;;;9.77;7.07;;;;;;;20.92;37.68;99190.81;5079401;28;20207;-67
2022/04/22 10:43:26;;;;;;;11.17;6.87;;;;;;;20.95;37.54;99194.88;5084085;28;20207;-66
2022/04/22 10:48:42;;;;;;;9.60;7.47;;;;;;;20.93;37.10;99189.75;5080102;28;20235;-66
2022/04/22 10:51:10;;;;;;;13.53;6.10;;;;;;;21.13;37.04;99181.16;5084478;28;20204;-66
2022/04/22 10:53:46;;;;;;;9.67;6.57;;;;;;;21.45;36.39;99177.84;5079958;28;20583;-67
2022/04/22 10:56:34;;;;;;;11.67;6.43;;;;;;;22.13;35.65;99170.06;5080053;28;20242;-67
2022/04/22 10:59:24;;;;;;;12.47;6.77;;;;;;;23.13;33.78;99168.44;5081010;28;20295;-67
2022/04/22 11:01:52;;;;;;;7.82;6.45;;;;;;;24.33;32.10;99166.53;5085519;28;20233;-68
2022/04/22 11:04:24;;;;;;;10.82;6.32;;;;;;;25.59;30.54;99158.53;5085696;28;20245;-67
2022/04/22 11:06:51;;;;;;;7.80;6.32;;;;;;;27.07;28.84;99153.75;5085770;28;20348;-67
2022/04/22 11:09:27;;;;;;;9.85;5.63;;;;;;;28.77;26.54;99149.00;5085231;28;20719;-68
2022/04/22 11:11:57;;;;;;;33.35;7.18;;;;;;;30.63;23.68;99141.84;5085405;28;20327;-68
2022/04/22 11:14:26;;;;;;;11.25;6.43;;;;;;;32.36;22.02;99133.13;5081649;28;20207;-69
2022/04/22 11:16:56;;;;;;;9.85;6.78;;;;;;;33.82;20.55;99128.28;5085873;28;20374;-68
2022/04/22 11:19:27;;;;;;;8.13;6.10;;;;;;;35.35;18.79;99124.38;5083951;28;20217;-68
2022/04/22 11:21:59;;;;;;;11.10;6.22;;;;;;;36.29;18.04;99118.63;5082429;28;20207;-68
2022/04/22 11:24:29;;;;;;;7.32;5.50;;;;;;;36.37;17.29;99119.59;5080099;28;20295;-68
2022/04/22 11:27:05;;;;;;;6.57;5.43;;;;;;;36.65;16.75;99105.78;5082369;28;20234;-68
2022/04/22 11:29:33;;;;;;;6.95;5.47;;;;;;;37.88;16.17;99105.31;5073650;28;20215;-69
2022/04/22 11:32:21;;;;;;;7.80;5.00;;;;;;;38.29;16.26;99109.34;5080061;28;20218;-68
2022/04/22 11:35:09;;;;;;;6.07;4.68;;;;;;;37.60;16.71;99105.47;5079172;28;20298;-70
2022/04/22 11:37:37;;;;;;;8.20;5.63;;;;;;;35.62;17.68;99116.56;5081750;28;20228;-69
2022/04/22 11:40:23;;;;;;;9.82;5.97;;;;;;;33.15;19.80;99104.38;5081658;28;20198;-69
2022/04/22 11:42:55;;;;;;;32.20;7.80;;;;;;;30.71;22.07;99111.00;5083628;28;20275;-69
2022/04/22 11:45:23;;;;;;;12.07;6.03;;;;;;;29.36;23.75;99114.66;5081085;28;20218;-69
2022/04/22 11:47:51;;;;;;;7.05;5.40;;;;;;;28.29;24.61;99106.72;5083482;28;20199;-69
2022/04/22 11:50:22;;;;;;;6.68;5.43;;;;;;;26.86;26.05;99095.97;5081237;28;20210;-70
2022/04/22 11:52:56;;;;;;;6.85;5.70;;;;;;;25.41;27.90;99097.53;5078508;28;20293;-66
2022/04/22 11:55:24;;;;;;;8.68;6.35;;;;;;;24.46;29.63;99104.75;5073629;28;20271;-67
2022/04/22 11:57:52;;;;;;;14.07;6.18;;;;;;;23.60;30.72;99100.00;5083007;28;20609;-67
2022/04/22 12:05:52;;;;;;;15.60;5.43;;;;;;;23.04;32.63;99086.25;5083108;28;20262;-67
2022/04/22 12:08:20;;;;;;;6.82;5.70;;;;;;;23.53;31.66;99089.44;5084614;28;20333;-67
2022/04/22 12:10:50;;;;;;;9.02;5.60;;;;;;;23.46;32.23;99091.56;5089750;28;20297;-67
2022/04/22 12:13:18;;;;;;;8.52;6.53;;;;;;;23.19;31.86;99093.59;5081540;28;20207;-67
2022/04/22 12:15:48;;;;;;;9.15;5.45;;;;;;;23.24;31.83;99080.91;5078205;28;20678;-67
2022/04/22 12:18:31;;;;;;;7.28;5.57;;;;;;;23.34;32.02;99077.44;5080605;28;20256;-67
2022/04/22 12:21:01;;;;;;;9.70;5.50;;;;;;;23.33;32.12;99081.22;5080307;28;20213;-67
2022/04/22 12:23:36;;;;;;;11.98;5.28;;;;;;;23.46;32.06;99071.81;5077510;28;20218;-67
2022/04/22 12:26:05;;;;;;;9.00;5.05;;;;;;;23.26;32.12;99073.34;5082523;28;20260;-66
2022/04/22 12:28:33;;;;;;;6.40;5.30;;;;;;;24.35;31.23;99074.97;5083856;28;20260;-67
2022/04/22 12:31:00;;;;;;;8.30;5.30;;;;;;;24.47;30.80;99065.75;5085994;28;20246;-68
2022/04/22 12:33:30;;;;;;;6.28;5.60;;;;;;;24.12;31.05;99058.41;5084969;28;20644;-69
2022/04/22 12:36:05;;;;;;;6.70;5.47;;;;;;;23.57;31.42;99060.75;5085544;28;20215;-68